EGMD/LYX METAR and TAF weather

Enter ICAO airport designator
Station Type Date Time Source
EGMD METAR 2018/07/21 13:20 UTC NOAA

EGMD 211320Z 21011KT 9999 FEW035 23/15 Q1014


Station Type Date Time Source
EGMD Decoded METAR 2018/07/21 13:20 UTC NOAA

Lydd Airport , United Kingdom (EGMD) 50-57N 000-56E
Jul 21, 2018 - 09:20 AM EDT / 2018.07.21 1320 UTC
Wind: from the SSW (210 degrees) at 13 MPH (11 KT):0
Visibility: greater than 7 mile(s):0
Sky conditions: mostly clear
Temperature: 73 F (23 C)
Dew Point: 59 F (15 C)
Relative Humidity: 60%
Pressure (altimeter): 29.94 in. Hg (1014 hPa)
ob: EGMD 211320Z 21011KT 9999 FEW035 23/15 Q1014
cycle: 13

Station Type Date Time Source
EGMD TAF UTC NOAA

Error!


Example: see airport list